Time;durP1;ratioP1;P1;durP2;ratioP2;P2;SDS_P1;SDS_P2;PMS_P1;PMS_P2;Temp;Humidity;BMP_temperature;BMP_pressure;BME280_temperature;BME280_humidity;BME280_pressure;Samples;Min_cycle;Max_cycle;Signal;HPM_P1;HPM_P2
2022/01/17 00:00:13;;;;;;;24.43;18.03;;;;;;;1.76;72.07;101208.22;4948236;28;20307;-75
2022/01/17 00:02:40;;;;;;;29.00;19.63;;;;;;;1.90;72.29;101210.78;4948763;28;20656;-75
2022/01/17 00:05:08;;;;;;;27.75;17.73;;;;;;;1.89;72.32;101217.72;4950092;28;20255;-74
2022/01/17 00:07:34;;;;;;;28.75;18.73;;;;;;;1.88;72.17;101215.97;4953655;28;20259;-75
2022/01/17 00:09:59;;;;;;;24.50;16.30;;;;;;;1.88;72.54;101225.47;4953608;28;20566;-75
2022/01/17 00:12:26;;;;;;;29.23;17.90;;;;;;;1.87;72.36;101227.19;4937015;28;20461;-74
2022/01/17 00:14:54;;;;;;;32.03;17.92;;;;;;;1.87;72.53;101223.75;4956767;28;20531;-74
2022/01/17 00:19:46;;;;;;;25.50;16.73;;;;;;;1.87;72.51;101223.75;4946191;28;20257;-74
2022/01/17 00:22:15;;;;;;;25.35;16.08;;;;;;;1.85;72.87;101221.16;4962511;28;20231;-74
2022/01/17 00:24:41;;;;;;;29.73;18.27;;;;;;;1.85;72.75;101222.88;4960732;28;20224;-74
2022/01/17 00:27:07;;;;;;;23.88;14.38;;;;;;;1.82;72.69;101223.75;4950383;28;20223;-74
2022/01/17 00:29:34;;;;;;;31.10;17.40;;;;;;;1.83;72.69;101220.28;4955926;28;20786;-75
2022/01/17 00:31:59;;;;;;;28.05;19.25;;;;;;;1.90;73.10;101219.41;4952817;28;20487;-74
2022/01/17 00:34:25;;;;;;;21.30;17.10;;;;;;;1.89;72.72;101217.72;4948271;28;20211;-74
2022/01/17 00:36:51;;;;;;;19.60;16.03;;;;;;;1.88;72.63;101218.56;4952020;28;20213;-74
2022/01/17 00:39:17;;;;;;;22.17;15.27;;;;;;;1.87;72.99;101222.03;4952900;28;20854;-74
2022/01/17 00:41:43;;;;;;;24.50;16.20;;;;;;;1.87;72.79;101232.38;4953453;28;20487;-74
2022/01/17 00:44:09;;;;;;;26.10;16.03;;;;;;;1.84;72.52;101223.75;4950196;28;20423;-74
2022/01/17 00:46:35;;;;;;;23.93;17.10;;;;;;;1.81;72.91;101224.63;4958389;28;20510;-74
2022/01/17 00:49:00;;;;;;;26.73;16.73;;;;;;;1.79;72.74;101218.59;4950227;28;20200;-74
2022/01/17 00:51:26;;;;;;;22.03;16.30;;;;;;;1.77;72.65;101228.06;4949057;28;20202;-74
2022/01/17 00:53:52;;;;;;;26.60;14.80;;;;;;;1.76;72.86;101228.97;4956164;28;20581;-74
2022/01/17 00:56:21;;;;;;;23.33;15.70;;;;;;;1.74;72.75;101220.31;4961315;28;20217;-74
2022/01/17 00:58:47;;;;;;;26.08;16.20;;;;;;;1.70;73.14;101223.75;4948727;28;20192;-74
2022/01/17 01:01:12;;;;;;;23.40;14.53;;;;;;;1.68;73.14;101222.94;4948800;28;20219;-74
2022/01/17 01:03:38;;;;;;;20.30;14.27;;;;;;;1.65;72.97;101226.38;4930375;28;20237;-74
2022/01/17 01:06:04;;;;;;;19.70;14.00;;;;;;;1.64;72.90;101227.22;4933719;28;20714;-74
2022/01/17 01:08:30;;;;;;;20.87;14.23;;;;;;;1.61;73.24;101227.22;4930783;28;20693;-74
2022/01/17 01:10:55;;;;;;;23.23;13.98;;;;;;;1.60;73.12;101219.47;4940503;28;20880;-74
2022/01/17 01:13:23;;;;;;;32.97;17.33;;;;;;;1.57;73.00;101227.22;4932355;28;20851;-74
2022/01/17 01:29:04;;;;;;;27.70;15.63;;;;;;;1.44;73.32;101216.88;4958408;28;20211;-80
2022/01/17 01:31:47;;;;;;;22.70;12.97;;;;;;;1.40;73.01;101214.28;4957016;28;20590;-80
2022/01/17 01:34:13;;;;;;;19.98;14.93;;;;;;;1.38;73.43;101219.50;4949734;28;20205;-80
2022/01/17 01:36:41;;;;;;;22.75;15.50;;;;;;;1.38;73.14;101231.53;4949782;28;20609;-80
2022/01/17 01:39:07;;;;;;;26.33;17.48;;;;;;;1.37;73.35;101233.28;4947637;28;20212;-80
2022/01/17 01:41:42;;;;;;;24.30;13.30;;;;;;;1.35;73.18;101229.84;4950484;28;20272;-80
2022/01/17 01:44:16;;;;;;;21.88;13.80;;;;;;;1.35;73.18;101237.63;4953306;28;20208;-79
2022/01/17 01:46:43;;;;;;;23.88;16.00;;;;;;;1.33;73.10;101221.22;4956791;28;20235;-79
2022/01/17 01:49:10;;;;;;;27.13;14.95;;;;;;;1.35;73.13;101221.19;4957765;28;20205;-80
2022/01/17 01:51:35;;;;;;;19.75;13.50;;;;;;;1.36;72.84;101225.53;4957614;28;20287;-80
2022/01/17 01:54:01;;;;;;;20.93;14.07;;;;;;;1.37;72.69;101225.50;4948460;28;20361;-80
2022/01/17 01:56:27;;;;;;;24.13;13.23;;;;;;;1.40;72.80;101222.06;4936807;29;20220;-80
2022/01/17 01:58:52;;;;;;;24.30;13.83;;;;;;;1.40;72.45;101215.16;4936836;29;20205;-80
2022/01/17 02:01:18;;;;;;;27.40;14.80;;;;;;;1.42;72.17;101217.75;4947912;28;20213;-79
2022/01/17 02:03:43;;;;;;;22.13;13.00;;;;;;;1.44;72.21;101210.84;4948694;28;20235;-80
2022/01/17 02:06:08;;;;;;;21.77;12.90;;;;;;;1.45;72.07;101213.44;4951941;28;20208;-78
2022/01/17 02:08:35;;;;;;;20.63;14.87;;;;;;;1.48;71.79;101208.25;4973305;28;20213;-79
2022/01/17 02:11:00;;;;;;;20.25;13.98;;;;;;;1.50;72.04;101216.03;4961431;28;20212;-79
2022/01/17 02:13:26;;;;;;;22.40;13.60;;;;;;;1.50;72.08;101214.28;4957338;28;20241;-79
2022/01/17 02:16:00;;;;;;;22.23;13.47;;;;;;;1.51;71.83;101203.09;4958413;28;20272;-80
2022/01/17 02:18:30;;;;;;;21.98;14.55;;;;;;;1.52;71.90;101207.38;4959165;28;20500;-79
2022/01/17 02:21:19;;;;;;;26.45;16.05;;;;;;;1.51;72.10;101200.50;4957553;28;20276;-80
2022/01/17 02:23:51;;;;;;;19.48;12.77;;;;;;;1.50;71.92;101198.75;4957930;28;20769;-80
2022/01/17 02:26:18;;;;;;;23.67;15.27;;;;;;;1.51;71.87;101186.66;4959575;28;20327;-79
2022/01/17 02:28:49;;;;;;;21.08;13.77;;;;;;;1.52;72.00;101189.25;4961420;28;20204;-80
2022/01/17 02:31:15;;;;;;;24.17;13.95;;;;;;;1.53;71.92;101185.78;4941983;29;20248;-80
2022/01/17 02:33:41;;;;;;;23.52;13.07;;;;;;;1.50;71.89;101190.97;4955191;28;20219;-80
2022/01/17 02:36:07;;;;;;;22.17;13.40;;;;;;;1.48;72.22;101191.84;4957297;28;20225;-80
2022/01/17 02:38:33;;;;;;;24.57;14.90;;;;;;;1.45;72.44;101184.09;4959173;28;20235;-80
2022/01/17 02:40:58;;;;;;;20.83;14.77;;;;;;;1.41;72.46;101190.16;4958416;28;20484;-80
2022/01/17 02:43:26;;;;;;;18.80;14.00;;;;;;;1.39;72.65;101187.53;4961643;28;20928;-80
2022/01/17 02:48:25;;;;;;;18.07;13.10;;;;;;;1.35;72.64;101193.59;4955349;28;20205;-80
2022/01/17 02:50:51;;;;;;;18.85;13.20;;;;;;;1.33;72.83;101187.56;4958029;28;20659;-80
2022/01/17 02:53:17;;;;;;;21.30;14.70;;;;;;;1.30;72.99;101195.31;4957627;29;20233;-79
2022/01/17 02:55:49;;;;;;;20.50;13.93;;;;;;;1.27;73.31;101192.72;4958203;28;20575;-80
2022/01/17 02:58:16;;;;;;;21.98;13.65;;;;;;;1.24;73.39;101192.72;4958966;28;20681;-79
2022/01/17 03:00:42;;;;;;;25.42;16.42;;;;;;;1.21;73.42;101196.16;4957525;28;20744;-80
2022/01/17 03:03:16;;;;;;;22.03;14.43;;;;;;;1.16;73.55;101205.69;4956909;28;20235;-80
2022/01/17 03:05:41;;;;;;;22.70;14.85;;;;;;;1.09;73.82;101202.22;4955563;28;20221;-80
2022/01/17 03:08:07;;;;;;;21.77;15.33;;;;;;;1.05;73.93;101208.25;4958095;28;20237;-79
2022/01/17 03:10:43;;;;;;;18.37;14.60;;;;;;;1.00;74.00;101217.75;4956602;28;20194;-79
2022/01/17 03:13:13;;;;;;;25.20;15.43;;;;;;;0.91;74.28;101212.53;4957607;28;20208;-80
2022/01/17 03:15:40;;;;;;;23.13;14.15;;;;;;;0.84;74.34;101213.41;4947541;28;20248;-78
2022/01/17 03:18:06;;;;;;;22.60;13.25;;;;;;;0.76;74.68;101220.28;4948487;29;20914;-77
2022/01/17 03:20:34;;;;;;;21.45;13.38;;;;;;;0.69;74.93;101229.72;4944710;28;20229;-78
2022/01/17 03:23:00;;;;;;;24.42;14.02;;;;;;;0.64;75.15;101231.44;4944579;28;20212;-78
2022/01/17 03:25:27;;;;;;;24.98;15.88;;;;;;;0.62;75.33;101234.03;4943916;28;20308;-78
2022/01/17 03:27:53;;;;;;;22.73;14.35;;;;;;;0.62;75.41;101244.38;4948001;28;20212;-77
2022/01/17 03:30:19;;;;;;;17.70;14.20;;;;;;;0.63;75.42;101248.69;4929403;29;20205;-80
2022/01/17 03:32:44;;;;;;;24.27;18.43;;;;;;;0.79;76.36;101248.72;4943195;28;20489;-78
2022/01/17 03:35:11;;;;;;;24.57;16.60;;;;;;;0.76;76.12;101244.41;4946660;28;20484;-78
2022/01/17 03:37:36;;;;;;;20.48;15.65;;;;;;;0.76;76.49;101240.97;4944952;28;20666;-78
2022/01/17 03:40:03;;;;;;;20.30;14.90;;;;;;;0.76;76.01;101248.72;4946694;28;20197;-78
2022/01/17 03:42:28;;;;;;;19.25;13.63;;;;;;;0.75;76.29;101244.41;4946537;28;20268;-78
2022/01/17 03:44:54;;;;;;;23.90;14.07;;;;;;;0.73;76.38;101241.81;4948370;28;20299;-80
2022/01/17 03:47:20;;;;;;;26.90;15.80;;;;;;;0.71;76.66;101238.38;4947540;28;20215;-78
2022/01/17 03:49:45;;;;;;;21.00;14.70;;;;;;;0.69;76.81;101246.97;4947691;28;20217;-78
2022/01/17 03:52:11;;;;;;;23.30;14.70;;;;;;;0.66;76.45;101247.81;4948297;28;20471;-78
2022/01/17 03:54:36;;;;;;;19.00;14.23;;;;;;;0.63;76.90;101240.91;4950777;28;20205;-78
2022/01/17 03:57:02;;;;;;;24.70;13.90;;;;;;;0.61;77.00;101245.22;4949226;28;20229;-78
2022/01/17 03:59:28;;;;;;;18.27;14.30;;;;;;;0.59;77.00;101241.75;4951845;29;20219;-79
2022/01/17 04:01:54;;;;;;;20.83;13.90;;;;;;;0.60;77.23;101242.66;4951080;28;20992;-78
2022/01/17 04:04:19;;;;;;;21.17;13.93;;;;;;;0.60;77.10;101235.75;4944759;28;20994;-78
2022/01/17 04:06:45;;;;;;;28.47;16.80;;;;;;;0.60;76.94;101233.16;4950566;29;20469;-78
2022/01/17 04:09:11;;;;;;;19.77;14.17;;;;;;;0.58;77.33;101234.00;4945731;29;20991;-78
2022/01/17 04:11:37;;;;;;;19.48;14.45;;;;;;;0.55;77.36;101224.50;4948265;28;20648;-78
2022/01/17 04:14:05;;;;;;;22.85;15.38;;;;;;;0.55;77.52;101214.19;4952298;28;20994;-78
2022/01/17 04:16:31;;;;;;;21.05;14.52;;;;;;;0.55;77.44;101211.59;4946266;28;20340;-78
2022/01/17 04:18:56;;;;;;;21.60;15.07;;;;;;;0.54;77.46;101211.56;4948640;28;20205;-79
2022/01/17 04:21:22;;;;;;;25.90;15.53;;;;;;;0.55;77.53;101208.16;4944547;28;20288;-78
2022/01/17 04:23:47;;;;;;;18.90;13.90;;;;;;;0.53;77.75;101202.97;4950198;28;20248;-79
2022/01/17 04:26:14;;;;;;;16.90;12.67;;;;;;;0.49;77.80;101205.53;4946160;28;20237;-78
2022/01/17 04:28:40;;;;;;;24.63;14.30;;;;;;;0.48;78.00;101209.84;4948137;28;20213;-78
2022/01/17 04:31:05;;;;;;;21.70;15.13;;;;;;;0.48;78.18;101215.00;4948858;28;21150;-79
2022/01/17 04:33:31;;;;;;;24.30;14.60;;;;;;;0.47;78.37;101218.47;4948281;29;20231;-79
2022/01/17 04:35:56;;;;;;;21.03;12.53;;;;;;;0.46;78.30;101221.91;4929671;29;20231;-78
2022/01/17 04:38:22;;;;;;;23.47;14.00;;;;;;;0.41;78.75;101231.38;4945533;28;20212;-78
2022/01/17 04:40:50;;;;;;;14.60;12.23;;;;;;;0.36;78.65;101235.66;4948816;28;20307;-78
2022/01/17 04:43:33;;;;;;;18.63;12.20;;;;;;;0.32;78.76;101239.06;4949974;28;21295;-78
2022/01/17 04:45:58;;;;;;;19.40;13.07;;;;;;;0.28;79.35;101251.13;4949377;29;20236;-78
2022/01/17 04:48:25;;;;;;;17.40;11.93;;;;;;;0.22;79.36;101267.47;4947460;28;20260;-78
2022/01/17 04:50:51;;;;;;;14.38;12.30;;;;;;;0.19;79.55;101264.88;4946143;28;20205;-78
2022/01/17 04:53:19;;;;;;;17.13;12.73;;;;;;;0.17;79.67;101279.50;4947529;28;20264;-78
2022/01/17 04:55:44;;;;;;;16.92;11.93;;;;;;;0.15;79.63;101286.34;4947009;28;20617;-78
2022/01/17 04:58:10;;;;;;;24.33;14.00;;;;;;;0.15;79.86;101293.25;4927006;29;20249;-78
2022/01/17 05:00:36;;;;;;;29.47;15.63;;;;;;;0.17;79.75;101302.75;4947355;28;20239;-77
2022/01/17 05:03:01;;;;;;;20.37;13.20;;;;;;;0.21;79.80;101304.47;4945394;28;20208;-78
2022/01/17 05:05:27;;;;;;;26.27;14.80;;;;;;;0.27;79.33;101302.78;4945363;28;20228;-78
2022/01/17 05:07:52;;;;;;;29.27;15.80;;;;;;;0.30;79.54;101307.97;4946582;29;20295;-78
2022/01/17 05:10:21;;;;;;;22.20;14.70;;;;;;;0.35;79.20;101307.16;4945078;29;20760;-78
2022/01/17 05:12:46;;;;;;;27.67;18.20;;;;;;;0.40;79.14;101308.03;4951546;28;20237;-78
2022/01/17 05:15:36;;;;;;;26.60;16.20;;;;;;;0.44;78.98;101308.94;4958686;28;20217;-78
2022/01/17 05:20:36;;;;;;;21.70;15.48;;;;;;;0.53;78.75;101296.03;4947342;28;20232;-77
2022/01/17 05:23:02;;;;;;;23.40;14.45;;;;;;;0.54;78.64;101292.63;4948957;29;21014;-76
2022/01/17 05:25:27;;;;;;;20.63;14.23;;;;;;;0.56;78.65;101285.69;4948011;28;20232;-78
2022/01/17 05:27:53;;;;;;;19.97;13.93;;;;;;;0.57;78.82;101279.69;4945931;28;20240;-77
2022/01/17 05:30:21;;;;;;;23.07;13.70;;;;;;;0.60;78.64;101286.59;4949308;28;20227;-78
2022/01/17 05:32:48;;;;;;;26.80;18.20;;;;;;;0.75;78.88;101285.78;4953202;28;20491;-78
2022/01/17 05:35:14;;;;;;;27.90;15.30;;;;;;;0.76;78.84;101292.69;4948236;28;20232;-76
2022/01/17 05:37:40;;;;;;;22.48;13.35;;;;;;;0.76;78.43;101292.69;4948392;29;20205;-77
2022/01/17 05:40:08;;;;;;;22.10;13.68;;;;;;;0.75;78.39;101302.16;4949792;28;20213;-78
2022/01/17 05:42:33;;;;;;;22.25;13.95;;;;;;;0.74;78.51;101305.63;4960728;28;20219;-79
2022/01/17 05:44:59;;;;;;;26.03;13.70;;;;;;;0.75;78.49;101296.97;4956523;29;20230;-78
2022/01/17 05:47:24;;;;;;;22.43;14.57;;;;;;;0.79;78.40;101292.72;4957815;28;20318;-79
2022/01/17 05:49:50;;;;;;;27.13;16.70;;;;;;;0.79;78.53;101290.13;4952383;28;20220;-79
2022/01/17 05:52:15;;;;;;;35.70;25.00;;;;;;;0.80;78.47;101294.41;4952949;28;20268;-78
2022/01/17 05:54:41;;;;;;;29.80;19.70;;;;;;;0.79;78.46;101292.72;4951158;28;20292;-78
2022/01/17 05:57:07;;;;;;;24.47;15.43;;;;;;;0.77;78.50;101289.25;4956963;28;20224;-78
2022/01/17 05:59:32;;;;;;;23.93;14.77;;;;;;;0.76;78.44;101284.94;4954029;28;20982;-77
2022/01/17 06:01:58;;;;;;;22.02;18.35;;;;;;;0.84;78.70;101288.41;4949877;28;20497;-77
2022/01/17 06:04:24;;;;;;;25.30;15.33;;;;;;;0.85;78.61;101300.47;4949177;28;20229;-77
2022/01/17 06:06:49;;;;;;;25.03;15.70;;;;;;;0.83;78.56;101297.88;4931025;29;20513;-77
2022/01/17 06:09:15;;;;;;;23.63;15.40;;;;;;;0.84;78.47;101285.84;4949645;28;20201;-77
2022/01/17 06:11:40;;;;;;;19.87;15.07;;;;;;;0.83;78.15;101289.25;4948145;28;20674;-77
2022/01/17 06:14:07;;;;;;;22.27;14.80;;;;;;;0.84;78.47;101294.44;4948762;28;20216;-78
2022/01/17 06:16:33;;;;;;;20.90;15.15;;;;;;;0.83;78.41;101284.94;4949499;28;20244;-77
2022/01/17 06:18:58;;;;;;;20.80;16.25;;;;;;;0.83;78.24;101269.41;4952835;28;20212;-78
2022/01/17 06:21:24;;;;;;;21.70;18.23;;;;;;;0.81;78.45;101281.50;4960068;28;20225;-77
2022/01/17 06:23:50;;;;;;;16.83;12.47;;;;;;;0.80;78.35;101294.41;4958819;28;20217;-78
2022/01/17 06:26:15;;;;;;;18.63;13.50;;;;;;;0.79;78.47;101287.53;4961565;28;20240;-78
2022/01/17 06:28:40;;;;;;;18.57;13.77;;;;;;;0.81;78.30;101288.38;4952933;28;20237;-78
2022/01/17 06:31:06;;;;;;;22.63;14.53;;;;;;;0.83;78.17;101297.88;4952999;29;20436;-78
2022/01/17 06:33:31;;;;;;;26.20;15.77;;;;;;;0.84;78.18;101304.78;4952101;28;20216;-78
2022/01/17 06:35:57;;;;;;;20.50;13.87;;;;;;;0.84;78.05;101302.22;4951131;28;20229;-78
2022/01/17 06:38:22;;;;;;;17.90;12.30;;;;;;;0.85;78.14;101308.25;4952897;28;20200;-78
2022/01/17 06:40:48;;;;;;;18.83;13.90;;;;;;;0.86;78.02;101295.31;4950110;28;20221;-78
2022/01/17 06:43:13;;;;;;;20.00;12.80;;;;;;;0.89;77.97;101297.03;4953111;28;20205;-78
2022/01/17 06:45:39;;;;;;;22.20;14.10;;;;;;;0.91;78.12;101297.91;4949938;28;20329;-78
2022/01/17 06:48:06;;;;;;;21.07;15.83;;;;;;;0.95;77.94;101303.97;4934058;29;20239;-78
2022/01/17 06:50:32;;;;;;;23.90;15.68;;;;;;;0.98;77.73;101310.00;4930540;28;20297;-78
2022/01/17 06:52:58;;;;;;;22.50;14.60;;;;;;;0.99;77.96;101327.25;4950580;28;20212;-78
2022/01/17 06:55:23;;;;;;;19.77;14.53;;;;;;;0.98;77.89;101312.59;4954494;28;20252;-78
2022/01/17 06:57:48;;;;;;;22.30;14.73;;;;;;;0.97;78.06;101310.84;4953778;28;20587;-78
2022/01/17 07:00:14;;;;;;;22.47;13.77;;;;;;;0.97;77.92;101321.19;4954137;28;20204;-78
2022/01/17 07:02:40;;;;;;;25.55;18.30;;;;;;;1.09;78.36;101318.66;4950016;28;20499;-78
2022/01/17 07:05:05;;;;;;;24.57;15.53;;;;;;;1.05;78.59;101319.53;4949697;28;20248;-78
2022/01/17 07:07:31;;;;;;;23.20;14.40;;;;;;;1.02;78.34;101316.91;4951131;28;20236;-78
2022/01/17 07:09:56;;;;;;;23.00;14.83;;;;;;;0.98;78.67;101315.19;4949409;28;20212;-78
2022/01/17 07:12:22;;;;;;;15.77;12.67;;;;;;;0.96;78.79;101329.84;4948447;28;20211;-78
2022/01/17 07:14:47;;;;;;;17.97;12.27;;;;;;;0.96;78.61;101342.78;4946775;28;20208;-78
2022/01/17 07:17:13;;;;;;;17.87;12.93;;;;;;;0.97;78.74;101353.97;4941413;28;20241;-78
2022/01/17 07:19:39;;;;;;;26.20;13.87;;;;;;;0.96;78.52;101368.66;4941312;28;20597;-79
2022/01/17 07:22:05;;;;;;;19.13;15.17;;;;;;;0.96;78.72;101388.47;4944681;28;20280;-79
2022/01/17 07:24:31;;;;;;;21.20;14.10;;;;;;;0.97;78.52;101397.97;4945840;28;20687;-79
2022/01/17 07:26:57;;;;;;;20.83;14.33;;;;;;;0.97;78.62;101391.06;4945741;28;20229;-79
2022/01/17 07:29:24;;;;;;;19.50;13.40;;;;;;;0.99;78.66;101411.78;4948966;28;20552;-79
2022/01/17 07:31:50;;;;;;;17.05;13.35;;;;;;;1.01;78.55;101439.41;4946836;28;20762;-79
2022/01/17 07:34:16;;;;;;;24.65;16.23;;;;;;;1.03;78.50;101421.31;4948990;28;20299;-79
2022/01/17 07:36:41;;;;;;;19.37;14.50;;;;;;;1.04;78.58;101408.34;4951473;28;20315;-79
2022/01/17 07:39:07;;;;;;;22.43;16.87;;;;;;;1.06;78.57;101400.59;4951960;28;20466;-78
2022/01/17 07:41:32;;;;;;;27.80;19.13;;;;;;;1.08;78.60;101392.00;4947259;28;20234;-79
2022/01/17 07:44:00;;;;;;;30.50;18.47;;;;;;;1.08;78.43;101389.41;4951152;28;20200;-79
2022/01/17 07:46:34;;;;;;;31.88;20.88;;;;;;;1.09;78.34;101378.19;4947354;28;20225;-80
2022/01/17 07:51:30;;;;;;;29.50;20.50;;;;;;;1.13;78.42;101378.19;4946564;28;20253;-79
2022/01/17 07:53:56;;;;;;;29.33;17.50;;;;;;;1.15;78.45;101410.13;4948866;28;20208;-80
2022/01/17 07:56:23;;;;;;;26.98;20.50;;;;;;;1.19;78.29;101422.19;4953257;28;20814;-80
2022/01/17 07:58:48;;;;;;;36.35;21.23;;;;;;;1.25;78.07;101419.66;4951448;28;20197;-80
2022/01/17 08:01:14;;;;;;;26.70;20.43;;;;;;;1.30;78.06;101425.72;4946346;28;20212;-80
2022/01/17 08:03:40;;;;;;;32.00;21.00;;;;;;;1.35;77.75;101417.94;4949533;28;20201;-80
2022/01/17 08:06:05;;;;;;;30.33;18.70;;;;;;;1.39;77.84;101405.03;4948205;28;20481;-80
2022/01/17 08:08:31;;;;;;;31.70;19.27;;;;;;;1.44;77.58;101402.47;4951497;28;20255;-80
2022/01/17 08:10:56;;;;;;;30.53;20.50;;;;;;;1.45;77.70;101394.69;4953451;28;20221;-80
2022/01/17 08:13:22;;;;;;;33.13;21.77;;;;;;;1.48;77.46;101404.19;4948735;28;20574;-80
2022/01/17 08:15:47;;;;;;;41.53;25.50;;;;;;;1.49;77.63;101411.13;4950707;28;20258;-80
2022/01/17 08:18:14;;;;;;;39.43;23.13;;;;;;;1.50;77.56;101418.88;4951589;29;20232;-80
2022/01/17 08:20:41;;;;;;;32.25;21.52;;;;;;;1.50;77.41;101423.19;4949432;28;20402;-80
2022/01/17 08:23:07;;;;;;;29.73;20.40;;;;;;;1.52;77.49;101418.88;4948793;28;20213;-80
2022/01/17 08:25:33;;;;;;;24.70;17.52;;;;;;;1.54;77.25;101418.03;4974784;28;20268;-79
2022/01/17 08:27:59;;;;;;;33.28;19.10;;;;;;;1.58;77.41;101415.44;4965080;28;20308;-80
2022/01/17 08:30:25;;;;;;;32.97;20.17;;;;;;;1.61;77.24;101415.44;4955568;28;20256;-79
2022/01/17 08:32:51;;;;;;;27.73;18.43;;;;;;;1.61;77.33;101405.94;4955639;28;20230;-79
2022/01/17 08:35:19;;;;;;;24.70;18.10;;;;;;;1.64;77.32;101416.31;4951994;28;20315;-79
2022/01/17 08:37:45;;;;;;;21.27;17.75;;;;;;;1.70;77.31;101412.84;4956020;28;20241;-79
2022/01/17 08:40:11;;;;;;;26.60;20.07;;;;;;;1.76;77.04;101399.94;4953329;29;20247;-79
2022/01/17 08:42:37;;;;;;;32.57;21.60;;;;;;;1.81;77.15;101393.03;4956603;28;20229;-80
2022/01/17 08:45:07;;;;;;;32.22;18.77;;;;;;;1.90;76.65;101385.25;4952251;28;20496;-80
2022/01/17 08:47:33;;;;;;;24.80;17.27;;;;;;;2.04;76.50;101390.44;4951742;28;20213;-80
2022/01/17 08:49:58;;;;;;;28.45;19.40;;;;;;;2.17;76.14;101396.50;4954700;28;20213;-79
2022/01/17 08:52:25;;;;;;;24.70;17.57;;;;;;;2.25;75.55;101381.78;4952518;28;20653;-79
2022/01/17 08:54:50;;;;;;;27.17;20.10;;;;;;;2.31;75.45;101380.94;4953820;28;20213;-80
2022/01/17 08:57:17;;;;;;;22.97;18.47;;;;;;;2.42;75.19;101390.41;4954163;28;20197;-80
2022/01/17 08:59:45;;;;;;;24.42;17.17;;;;;;;2.69;74.92;101390.38;4951680;28;20209;-80
2022/01/17 09:02:10;;;;;;;25.10;17.00;;;;;;;2.86;74.27;101381.66;4952859;28;20193;-79
2022/01/17 09:04:40;;;;;;;27.73;18.30;;;;;;;2.90;74.08;101379.91;4957150;28;20213;-80
2022/01/17 09:07:09;;;;;;;23.63;16.60;;;;;;;3.20;73.65;101384.09;4956950;28;20626;-80
2022/01/17 09:09:36;;;;;;;21.73;18.13;;;;;;;3.44;72.67;101395.25;4955268;28;20217;-79
2022/01/17 09:12:02;;;;;;;23.17;16.00;;;;;;;3.52;72.21;101409.06;4954908;28;20244;-80
2022/01/17 09:14:27;;;;;;;25.30;17.00;;;;;;;3.53;72.13;101413.38;4953203;28;20253;-79
2022/01/17 09:16:53;;;;;;;26.40;17.13;;;;;;;3.43;72.39;101414.28;4956560;28;20309;-80
2022/01/17 09:19:18;;;;;;;19.53;13.73;;;;;;;3.39;72.50;101420.38;4956229;28;20666;-80
2022/01/17 09:21:44;;;;;;;28.97;16.33;;;;;;;3.31;72.57;101428.22;4957384;28;20646;-80
2022/01/17 09:24:09;;;;;;;22.93;14.37;;;;;;;3.22;72.63;101426.53;4955068;28;20263;-79
2022/01/17 09:26:35;;;;;;;19.73;14.67;;;;;;;3.16;73.06;101423.06;4953999;28;20220;-79
2022/01/17 09:29:00;;;;;;;21.07;14.70;;;;;;;3.15;73.05;101437.78;4955677;28;20717;-80
2022/01/17 09:31:25;;;;;;;19.27;12.90;;;;;;;3.14;73.21;101438.69;4955256;28;20261;-80
2022/01/17 09:33:51;;;;;;;19.03;13.43;;;;;;;3.09;73.46;101448.22;4949920;28;20212;-80
2022/01/17 09:36:16;;;;;;;19.23;12.83;;;;;;;3.02;73.28;101470.72;4952177;28;20249;-80
2022/01/17 09:38:42;;;;;;;20.30;14.27;;;;;;;2.97;73.94;101476.78;4952137;28;20201;-80
2022/01/17 09:41:09;;;;;;;18.80;14.60;;;;;;;2.91;74.03;101475.06;4951242;28;20686;-80
2022/01/17 09:43:35;;;;;;;22.60;13.45;;;;;;;2.85;74.05;101481.13;4951576;28;20209;-79
2022/01/17 09:46:01;;;;;;;25.55;15.57;;;;;;;2.80;74.68;101485.47;4948815;28;20217;-80
2022/01/17 09:48:35;;;;;;;20.67;13.60;;;;;;;2.74;74.63;101482.03;4952497;28;20586;-80
2022/01/17 09:51:17;;;;;;;27.75;16.23;;;;;;;2.68;74.88;101497.63;4939099;28;20867;-80
2022/01/17 09:53:43;;;;;;;23.27;16.13;;;;;;;2.69;75.43;101496.75;4913191;29;20595;-80
2022/01/17 09:56:10;;;;;;;21.60;13.93;;;;;;;2.71;75.28;101502.81;4912606;29;20285;-80
2022/01/17 09:58:37;;;;;;;26.00;15.68;;;;;;;2.73;75.65;101508.81;4912375;29;20201;-80
2022/01/17 10:01:04;;;;;;;18.75;14.73;;;;;;;2.79;75.71;101514.03;4913376;29;20578;-80
2022/01/17 10:03:29;;;;;;;25.27;14.57;;;;;;;2.84;75.36;101509.72;4910646;29;20206;-80
2022/01/17 10:05:55;;;;;;;23.70;14.40;;;;;;;2.95;75.06;101518.34;4912670;29;20233;-80
2022/01/17 10:08:21;;;;;;;22.60;14.30;;;;;;;3.05;75.03;101503.59;4912583;29;20474;-80
2022/01/17 10:11:04;;;;;;;22.83;13.33;;;;;;;3.12;74.94;101510.50;4916615;29;20254;-80
2022/01/17 10:13:37;;;;;;;23.70;14.90;;;;;;;3.21;74.88;101507.88;4915130;29;20198;-80
2022/01/17 10:16:19;;;;;;;18.98;12.80;;;;;;;3.28;74.54;101496.59;4918181;29;20274;-80
2022/01/17 10:19:02;;;;;;;22.00;13.27;;;;;;;3.36;74.68;101490.53;4917534;29;20210;-79
2022/01/17 10:21:36;;;;;;;25.10;15.38;;;;;;;3.38;74.32;101494.84;4894137;29;20595;-81
2022/01/17 10:29:37;;;;;;;23.05;14.30;;;;;;;3.57;74.20;101471.41;4913313;29;20266;-80
2022/01/17 10:35:09;;;;;;;23.40;14.30;;;;;;;3.59;73.88;101491.28;4911147;29;20253;-80
2022/01/17 10:37:34;;;;;;;25.92;13.77;;;;;;;3.57;73.88;101493.03;4909626;29;20214;-80
2022/01/17 10:40:05;;;;;;;21.50;14.30;;;;;;;3.57;74.37;101487.84;4910430;29;20683;-79
2022/01/17 10:42:43;;;;;;;24.23;14.57;;;;;;;3.61;74.53;101494.75;4894332;29;20257;-80
2022/01/17 10:45:17;;;;;;;24.80;15.60;;;;;;;3.65;74.16;101483.47;4907406;29;20640;-80
2022/01/17 10:47:44;;;;;;;26.50;16.75;;;;;;;3.70;74.35;101484.31;4904813;29;20229;-80
2022/01/17 10:50:19;;;;;;;23.17;14.40;;;;;;;3.71;74.40;101486.03;4908462;29;20224;-80
2022/01/17 10:52:49;;;;;;;17.30;13.25;;;;;;;3.74;74.08;101490.34;4909464;29;20209;-80
2022/01/17 10:55:28;;;;;;;21.67;14.85;;;;;;;3.81;73.96;101491.16;4910153;29;20222;-80
2022/01/17 10:57:56;;;;;;;25.33;15.77;;;;;;;3.86;73.79;101497.22;4910923;29;20237;-80
2022/01/17 11:00:27;;;;;;;22.52;14.45;;;;;;;3.90;73.67;101497.19;4905665;29;20202;-80
2022/01/17 11:02:55;;;;;;;25.50;15.68;;;;;;;3.96;73.66;101506.69;4909647;29;20202;-79
2022/01/17 11:05:22;;;;;;;24.15;15.55;;;;;;;4.04;73.11;101497.09;4910634;29;20280;-81
2022/01/17 11:07:51;;;;;;;24.38;15.05;;;;;;;4.13;72.70;101481.47;4911630;29;20237;-81
2022/01/17 11:10:22;;;;;;;22.58;14.90;;;;;;;4.20;72.91;101485.72;4928348;29;20201;-81
2022/01/17 11:12:50;;;;;;;24.60;15.60;;;;;;;4.26;72.22;101481.34;4921793;29;20238;-80
2022/01/17 11:15:18;;;;;;;25.48;15.55;;;;;;;4.32;72.17;101484.78;4911947;29;20238;-80
2022/01/17 11:17:55;;;;;;;27.92;16.08;;;;;;;4.22;71.97;101478.78;4914255;29;20211;-80
2022/01/17 11:20:25;;;;;;;28.48;15.57;;;;;;;4.16;71.94;101476.22;4915402;29;20704;-80
2022/01/17 11:22:53;;;;;;;21.10;14.70;;;;;;;4.13;72.10;101477.97;4912184;29;20198;-80
2022/01/17 11:25:25;;;;;;;23.25;14.50;;;;;;;4.14;72.57;101479.72;4910560;29;20320;-81
2022/01/17 11:27:51;;;;;;;22.75;16.42;;;;;;;4.16;72.49;101477.97;4910129;29;20433;-81
2022/01/17 11:30:17;;;;;;;23.90;15.50;;;;;;;4.21;72.28;101474.47;4910856;29;20212;-80
2022/01/17 11:32:49;;;;;;;30.40;23.38;;;;;;;4.42;72.06;101470.81;4909760;29;20478;-81
2022/01/17 11:35:16;;;;;;;28.50;17.33;;;;;;;4.39;71.98;101483.84;4912729;29;20234;-81
2022/01/17 11:37:45;;;;;;;21.77;14.40;;;;;;;4.34;72.08;101472.59;4908926;29;20202;-81
2022/01/17 11:40:12;;;;;;;18.48;13.45;;;;;;;4.35;72.43;101481.31;4909899;29;20220;-81
2022/01/17 11:42:47;;;;;;;22.30;16.38;;;;;;;4.36;72.47;101468.25;4908717;29;20228;-81
2022/01/17 11:45:21;;;;;;;19.83;13.75;;;;;;;4.44;72.36;101465.59;4894217;29;20228;-81
2022/01/17 11:47:49;;;;;;;23.02;15.05;;;;;;;4.51;71.95;101469.88;4911501;29;20311;-81